Time;durP1;ratioP1;P1;durP2;ratioP2;P2;SDS_P1;SDS_P2;PMS_P1;PMS_P2;Temp;Humidity;BMP_temperature;BMP_pressure;BME280_temperature;BME280_humidity;BME280_pressure;Samples;Min_cycle;Max_cycle;Signal;HPM_P1;HPM_P2
2022/11/13 00:00:35;;;;;;;9.15;4.10;;;;;;;;;;2115256;28;20503;-48
2022/11/13 00:01:36;;;;;;;8.27;4.50;;;;;;;;;;2115572;28;20108;-47
2022/11/13 00:02:37;;;;;;;6.97;4.13;;;;;;;;;;2115422;28;20264;-48
2022/11/13 00:03:39;;;;;;;6.77;3.70;;;;;;;;;;2115356;28;20075;-48
2022/11/13 00:04:39;;;;;;;7.90;4.22;;;;;;;;;;2114044;28;20640;-50
2022/11/13 00:05:41;;;;;;;7.82;3.72;;;;;;;;;;2106960;28;20072;-47
2022/11/13 00:06:42;;;;;;;7.68;4.10;;;;;;;;;;2107055;28;20047;-47
2022/11/13 00:07:43;;;;;;;6.75;4.43;;;;;;;;;;2106879;28;20094;-48
2022/11/13 00:08:44;;;;;;;8.30;4.18;;;;;;;;;;2106928;28;20059;-48
2022/11/13 00:09:45;;;;;;;7.43;4.30;;;;;;;;;;2106907;28;20043;-46
2022/11/13 00:10:46;;;;;;;8.63;4.97;;;;;;;;;;2106889;28;20044;-44
2022/11/13 00:11:48;;;;;;;6.35;4.20;;;;;;;;;;2106901;28;20285;-43
2022/11/13 00:12:48;;;;;;;8.70;4.90;;;;;;;;;;2106862;28;20055;-43
2022/11/13 00:13:50;;;;;;;8.60;4.87;;;;;;;;;;2106900;28;20137;-43
2022/11/13 00:14:50;;;;;;;7.25;4.93;;;;;;;;;;2106887;28;20043;-44
2022/11/13 00:15:56;;;;;;;9.07;5.13;;;;;;;;;;2106870;28;20504;-43
2022/11/13 00:16:57;;;;;;;10.93;5.18;;;;;;;;;;2107011;28;20048;-43
2022/11/13 00:18:00;;;;;;;6.83;4.47;;;;;;;;;;2106989;28;20062;-43
2022/11/13 00:19:01;;;;;;;7.88;5.15;;;;;;;;;;2111297;28;20048;-43
2022/11/13 00:20:03;;;;;;;11.30;4.97;;;;;;;;;;2115128;28;20085;-43
2022/11/13 00:21:04;;;;;;;7.18;4.82;;;;;;;;;;2115130;28;20044;-43
2022/11/13 00:22:05;;;;;;;9.75;5.10;;;;;;;;;;2114791;28;20553;-48
2022/11/13 00:23:06;;;;;;;9.13;5.22;;;;;;;;;;2114731;28;20048;-47
2022/11/13 00:24:07;;;;;;;9.10;5.50;;;;;;;;;;2114821;28;20100;-48
2022/11/13 00:25:08;;;;;;;9.00;4.78;;;;;;;;;;2114671;28;20063;-44
2022/11/13 00:26:10;;;;;;;7.30;4.55;;;;;;;;;;2114876;28;20492;-43
2022/11/13 00:27:11;;;;;;;11.05;5.25;;;;;;;;;;2114659;28;20047;-43
2022/11/13 00:28:13;;;;;;;7.60;4.47;;;;;;;;;;2114690;28;20071;-43
2022/11/13 00:29:13;;;;;;;9.55;5.10;;;;;;;;;;2114405;28;20048;-47
2022/11/13 00:30:15;;;;;;;8.07;5.00;;;;;;;;;;2114909;28;20495;-47
2022/11/13 00:31:20;;;;;;;9.80;5.15;;;;;;;;;;2115238;28;20057;-43
2022/11/13 00:32:22;;;;;;;10.82;4.82;;;;;;;;;;2115062;28;20047;-43
2022/11/13 00:33:22;;;;;;;10.52;5.55;;;;;;;;;;2115050;28;20480;-47
2022/11/13 00:34:44;;;;;;;8.23;4.13;;;;;;;;;;2114996;28;20058;-47
2022/11/13 00:38:21;;;;;;;7.03;4.50;;;;;;;;;;2114225;28;20476;-43
2022/11/13 00:39:22;;;;;;;7.80;4.53;;;;;;;;;;2115018;28;20048;-43
2022/11/13 00:40:23;;;;;;;8.97;5.10;;;;;;;;;;2114862;28;20063;-47
2022/11/13 00:41:24;;;;;;;6.68;3.90;;;;;;;;;;2114923;28;20044;-43
2022/11/13 00:42:25;;;;;;;7.20;4.15;;;;;;;;;;2114845;28;20484;-44
2022/11/13 00:43:27;;;;;;;7.55;4.80;;;;;;;;;;2114843;28;20074;-45
2022/11/13 00:44:27;;;;;;;5.63;3.88;;;;;;;;;;2114999;28;20408;-48
2022/11/13 00:45:29;;;;;;;6.88;4.43;;;;;;;;;;2114892;28;20048;-47
2022/11/13 00:46:30;;;;;;;6.32;4.60;;;;;;;;;;2114688;28;20087;-44
2022/11/13 00:47:31;;;;;;;9.50;4.25;;;;;;;;;;2114922;28;20055;-44
2022/11/13 00:48:32;;;;;;;6.97;4.72;;;;;;;;;;2114984;28;20061;-43
2022/11/13 00:49:34;;;;;;;6.50;3.83;;;;;;;;;;2114947;28;20047;-43
2022/11/13 00:50:34;;;;;;;6.50;4.00;;;;;;;;;;2114859;28;20043;-45
2022/11/13 00:51:36;;;;;;;5.22;3.42;;;;;;;;;;2114995;28;20043;-42
2022/11/13 00:52:36;;;;;;;7.43;4.15;;;;;;;;;;2114764;28;20040;-43
2022/11/13 00:53:38;;;;;;;6.95;3.67;;;;;;;;;;2114947;28;20051;-48
2022/11/13 00:54:38;;;;;;;7.40;3.72;;;;;;;;;;2114880;28;20058;-43
2022/11/13 00:55:41;;;;;;;6.35;4.35;;;;;;;;;;2114757;28;20043;-49
2022/11/13 00:56:42;;;;;;;5.53;3.55;;;;;;;;;;2114613;28;20397;-45
2022/11/13 00:57:43;;;;;;;7.03;3.33;;;;;;;;;;2114918;28;20069;-44
2022/11/13 00:58:44;;;;;;;9.90;3.90;;;;;;;;;;2114851;28;20609;-47
2022/11/13 00:59:45;;;;;;;6.22;3.97;;;;;;;;;;2115011;28;20047;-43
2022/11/13 01:00:46;;;;;;;4.68;3.22;;;;;;;;;;2114847;28;20073;-48
2022/11/13 01:01:48;;;;;;;5.70;3.47;;;;;;;;;;2114854;28;20093;-43
2022/11/13 01:02:49;;;;;;;6.22;3.45;;;;;;;;;;2114999;28;20048;-47
2022/11/13 01:03:50;;;;;;;6.05;3.17;;;;;;;;;;2114872;28;20039;-47
2022/11/13 01:04:51;;;;;;;6.95;3.20;;;;;;;;;;2113213;28;20397;-43
2022/11/13 01:05:52;;;;;;;7.85;3.65;;;;;;;;;;2114841;28;20050;-47
2022/11/13 01:06:54;;;;;;;8.02;3.70;;;;;;;;;;2114947;28;20066;-43
2022/11/13 01:07:55;;;;;;;6.15;2.83;;;;;;;;;;2114981;28;20128;-44
2022/11/13 01:08:58;;;;;;;5.78;3.00;;;;;;;;;;2114949;28;20040;-46
2022/11/13 01:09:59;;;;;;;5.35;3.30;;;;;;;;;;2114850;28;20074;-46
2022/11/13 01:11:06;;;;;;;5.00;3.17;;;;;;;;;;2114816;28;20040;-47
2022/11/13 01:12:07;;;;;;;5.60;3.20;;;;;;;;;;2114860;28;20101;-47
2022/11/13 01:13:08;;;;;;;6.32;3.17;;;;;;;;;;2114880;28;20051;-43
2022/11/13 01:14:09;;;;;;;5.90;3.10;;;;;;;;;;2114874;28;20043;-47
2022/11/13 01:15:10;;;;;;;5.00;2.92;;;;;;;;;;2114590;28;20043;-43
2022/11/13 01:16:12;;;;;;;4.72;3.08;;;;;;;;;;2114728;28;20089;-47
2022/11/13 01:17:14;;;;;;;4.85;3.00;;;;;;;;;;2114780;28;20404;-48
2022/11/13 01:18:15;;;;;;;6.32;3.22;;;;;;;;;;2114801;28;20047;-43
2022/11/13 01:19:16;;;;;;;5.05;2.75;;;;;;;;;;2114845;28;20119;-47
2022/11/13 01:20:17;;;;;;;4.40;3.28;;;;;;;;;;2114704;28;20108;-43
2022/11/13 01:21:19;;;;;;;4.50;2.92;;;;;;;;;;2114851;28;20062;-43
2022/11/13 01:22:21;;;;;;;7.03;3.40;;;;;;;;;;2114787;28;20044;-48
2022/11/13 01:23:21;;;;;;;6.32;3.08;;;;;;;;;;2114787;28;20096;-43
2022/11/13 01:24:23;;;;;;;5.53;3.00;;;;;;;;;;2114738;28;20044;-43
2022/11/13 01:25:24;;;;;;;6.68;3.00;;;;;;;;;;2114800;28;20058;-43
2022/11/13 01:26:26;;;;;;;6.65;3.28;;;;;;;;;;2114724;28;20047;-45
2022/11/13 01:27:27;;;;;;;7.45;3.30;;;;;;;;;;2114677;28;20446;-48
2022/11/13 01:28:28;;;;;;;5.47;3.17;;;;;;;;;;2114788;28;20051;-43
2022/11/13 01:29:30;;;;;;;5.35;2.50;;;;;;;;;;2114817;28;20051;-43
2022/11/13 01:30:31;;;;;;;6.37;2.87;;;;;;;;;;2114643;28;20492;-43
2022/11/13 01:31:32;;;;;;;6.70;3.38;;;;;;;;;;2114812;28;20044;-45
2022/11/13 01:32:34;;;;;;;4.38;2.60;;;;;;;;;;2114855;28;20444;-46
2022/11/13 01:33:35;;;;;;;5.47;2.65;;;;;;;;;;2114910;28;20047;-45
2022/11/13 01:34:36;;;;;;;4.72;3.03;;;;;;;;;;2114765;28;20050;-43
2022/11/13 01:35:37;;;;;;;4.68;2.90;;;;;;;;;;2114557;28;20442;-43
2022/11/13 01:36:38;;;;;;;5.33;2.70;;;;;;;;;;2114764;28;20074;-47
2022/11/13 01:37:39;;;;;;;5.88;2.95;;;;;;;;;;2114589;28;20507;-47
2022/11/13 01:38:40;;;;;;;5.65;3.03;;;;;;;;;;2114754;28;20052;-43
2022/11/13 01:39:41;;;;;;;6.78;2.70;;;;;;;;;;2114568;28;20047;-46
2022/11/13 01:40:44;;;;;;;4.53;2.83;;;;;;;;;;2114729;28;20050;-43
2022/11/13 01:41:45;;;;;;;5.40;2.75;;;;;;;;;;2114594;28;20046;-44
2022/11/13 01:42:46;;;;;;;6.27;2.97;;;;;;;;;;2114443;28;20053;-43
2022/11/13 01:43:47;;;;;;;4.50;2.60;;;;;;;;;;2114689;28;20117;-43
2022/11/13 01:44:49;;;;;;;4.45;3.15;;;;;;;;;;2114673;28;20096;-43
2022/11/13 01:46:03;;;;;;;5.18;3.50;;;;;;;;;;2114576;28;20043;-47
2022/11/13 01:47:05;;;;;;;6.03;3.10;;;;;;;;;;2114609;28;20577;-47
2022/11/13 01:48:08;;;;;;;5.10;2.78;;;;;;;;;;2114573;28;20519;-45
2022/11/13 01:49:17;;;;;;;4.97;3.10;;;;;;;;;;2114668;28;20047;-47
2022/11/13 01:50:18;;;;;;;4.05;2.53;;;;;;;;;;2114612;28;20051;-43
2022/11/13 01:51:23;;;;;;;6.78;2.78;;;;;;;;;;2114449;28;20048;-43
2022/11/13 01:52:26;;;;;;;5.50;2.75;;;;;;;;;;2114767;28;20047;-43
2022/11/13 01:53:27;;;;;;;4.93;2.90;;;;;;;;;;2114700;28;20388;-44
2022/11/13 01:54:30;;;;;;;5.55;2.85;;;;;;;;;;2114678;28;20056;-46
2022/11/13 01:55:31;;;;;;;5.78;3.10;;;;;;;;;;2114482;28;20096;-43
2022/11/13 01:56:32;;;;;;;4.22;2.58;;;;;;;;;;2114677;28;20112;-47
2022/11/13 01:57:34;;;;;;;5.67;2.90;;;;;;;;;;2114536;28;20104;-44
2022/11/13 01:58:35;;;;;;;5.03;2.85;;;;;;;;;;2114531;28;20369;-47
2022/11/13 01:59:38;;;;;;;6.17;2.87;;;;;;;;;;2114541;28;20052;-48
2022/11/13 02:00:40;;;;;;;5.30;3.72;;;;;;;;;;2114417;28;20036;-43
2022/11/13 02:01:41;;;;;;;5.38;3.15;;;;;;;;;;2114433;28;20480;-43
2022/11/13 02:02:42;;;;;;;5.53;3.00;;;;;;;;;;2114555;28;20118;-42
2022/11/13 02:03:43;;;;;;;7.33;3.10;;;;;;;;;;2114586;28;20047;-43
2022/11/13 02:04:44;;;;;;;5.15;2.92;;;;;;;;;;2111849;28;20404;-43
2022/11/13 02:05:46;;;;;;;4.45;2.70;;;;;;;;;;2105924;28;20048;-44
2022/11/13 02:06:48;;;;;;;4.68;3.10;;;;;;;;;;2106063;28;20036;-43
2022/11/13 02:07:49;;;;;;;;;;;;;;;;;;2106594;28;20093;-43
2022/11/13 02:08:50;;;;;;;4.85;2.80;;;;;;;;;;2106000;28;19955;-43
2022/11/13 02:09:53;;;;;;;4.03;2.75;;;;;;;;;;2105859;28;20528;-48
2022/11/13 02:10:55;;;;;;;5.07;2.70;;;;;;;;;;2111217;28;20055;-47
2022/11/13 02:11:56;;;;;;;5.63;2.55;;;;;;;;;;2109253;28;20044;-46
2022/11/13 02:12:57;;;;;;;5.20;2.97;;;;;;;;;;2112998;28;20055;-48
2022/11/13 02:13:59;;;;;;;5.30;2.90;;;;;;;;;;2108127;28;20066;-46
2022/11/13 02:15:01;;;;;;;6.35;2.85;;;;;;;;;;2106020;28;20051;-47
2022/11/13 02:16:02;;;;;;;4.63;3.00;;;;;;;;;;2105956;28;20044;-50
2022/11/13 02:17:04;;;;;;;6.53;2.90;;;;;;;;;;2106090;28;20511;-48
2022/11/13 02:18:06;;;;;;;5.53;3.10;;;;;;;;;;2106374;28;20443;-43
2022/11/13 02:19:11;;;;;;;3.85;2.50;;;;;;;;;;2106270;28;20175;-44
2022/11/13 02:20:13;;;;;;;4.38;2.72;;;;;;;;;;2105994;28;20181;-43
2022/11/13 02:21:19;;;;;;;5.13;3.38;;;;;;;;;;2106250;28;20160;-42
2022/11/13 02:22:23;;;;;;;4.18;2.60;;;;;;;;;;2106128;28;20044;-43
2022/11/13 02:23:30;;;;;;;3.38;2.55;;;;;;;;;;2106482;28;20048;-42
2022/11/13 02:24:33;;;;;;;5.45;2.80;;;;;;;;;;2106200;28;20048;-42
2022/11/13 02:25:39;;;;;;;6.15;3.00;;;;;;;;;;2106339;28;20055;-48
2022/11/13 02:26:40;;;;;;;3.63;2.45;;;;;;;;;;2105915;28;20040;-50
2022/11/13 02:27:43;;;;;;;4.07;2.63;;;;;;;;;;2106174;28;20429;-46
2022/11/13 02:28:44;;;;;;;4.50;2.67;;;;;;;;;;2106095;28;20051;-46
2022/11/13 02:29:45;;;;;;;7.75;2.58;;;;;;;;;;2105997;28;20404;-47
2022/11/13 02:30:46;;;;;;;4.23;2.63;;;;;;;;;;2106020;28;20054;-48
2022/11/13 02:31:47;;;;;;;4.22;2.17;;;;;;;;;;2105965;28;20040;-46
2022/11/13 02:32:49;;;;;;;4.68;2.20;;;;;;;;;;2106166;28;20044;-47
2022/11/13 02:33:50;;;;;;;3.95;2.53;;;;;;;;;;2105873;28;20057;-47
2022/11/13 02:34:51;;;;;;;5.53;2.77;;;;;;;;;;2106146;28;20059;-49
2022/11/13 02:35:52;;;;;;;3.80;2.40;;;;;;;;;;2105951;28;20048;-48
2022/11/13 02:36:53;;;;;;;3.67;2.40;;;;;;;;;;2106004;28;20139;-46
2022/11/13 02:37:55;;;;;;;4.72;2.75;;;;;;;;;;2105904;28;20489;-46
2022/11/13 02:38:59;;;;;;;5.80;3.03;;;;;;;;;;2111379;28;20472;-46
2022/11/13 02:40:00;;;;;;;4.45;2.55;;;;;;;;;;2114353;28;20051;-46
2022/11/13 02:41:02;;;;;;;3.85;2.60;;;;;;;;;;2114571;28;20510;-45
2022/11/13 02:42:03;;;;;;;5.03;2.38;;;;;;;;;;2114395;28;20051;-48
2022/11/13 02:43:04;;;;;;;3.50;2.27;;;;;;;;;;2114273;28;20086;-46
2022/11/13 02:44:05;;;;;;;4.07;2.00;;;;;;;;;;2114434;28;20051;-46
2022/11/13 02:45:07;;;;;;;3.95;2.38;;;;;;;;;;2113901;28;20040;-47
2022/11/13 02:46:08;;;;;;;5.60;2.05;;;;;;;;;;2114431;28;20039;-48
2022/11/13 02:47:10;;;;;;;;;;;;;;;;;;2114844;28;20052;-46
2022/11/13 02:48:11;;;;;;;3.50;2.28;;;;;;;;;;2114529;28;19919;-46
2022/11/13 02:49:12;;;;;;;3.30;2.33;;;;;;;;;;2114411;28;20059;-46
2022/11/13 02:50:13;;;;;;;3.60;1.98;;;;;;;;;;2114240;28;20051;-46
2022/11/13 02:51:14;;;;;;;4.90;2.35;;;;;;;;;;2114405;28;20048;-47
2022/11/13 02:52:15;;;;;;;6.68;2.40;;;;;;;;;;2114432;28;20097;-46
2022/11/13 02:53:16;;;;;;;6.37;2.07;;;;;;;;;;2114404;28;20047;-46
2022/11/13 02:54:17;;;;;;;4.38;2.40;;;;;;;;;;2114403;28;20767;-44
2022/11/13 02:55:19;;;;;;;4.17;2.40;;;;;;;;;;2114394;28;20109;-43
2022/11/13 02:56:20;;;;;;;3.90;2.10;;;;;;;;;;2114311;28;20098;-46
2022/11/13 02:57:22;;;;;;;5.23;2.27;;;;;;;;;;2114567;28;20389;-48
2022/11/13 02:58:23;;;;;;;3.92;2.28;;;;;;;;;;2114381;28;20283;-48
2022/11/13 02:59:24;;;;;;;6.45;2.03;;;;;;;;;;2114441;28;20053;-48
2022/11/13 03:00:25;;;;;;;4.38;2.50;;;;;;;;;;2114147;28;20416;-46
2022/11/13 03:01:26;;;;;;;3.53;2.33;;;;;;;;;;2114363;28;20480;-49
2022/11/13 03:02:27;;;;;;;4.30;2.60;;;;;;;;;;2114594;28;20043;-44
2022/11/13 03:03:28;;;;;;;4.50;2.33;;;;;;;;;;2114378;28;20043;-44
2022/11/13 03:04:49;;;;;;;4.18;2.35;;;;;;;;;;2111634;28;20058;-43
2022/11/13 03:06:10;;;;;;;3.50;2.20;;;;;;;;;;2105810;28;20052;-43
2022/11/13 03:07:12;;;;;;;4.03;2.15;;;;;;;;;;2105765;28;20051;-43
2022/11/13 03:08:13;;;;;;;3.45;2.15;;;;;;;;;;2106039;28;20642;-43
2022/11/13 03:09:14;;;;;;;3.53;2.20;;;;;;;;;;2113313;28;20051;-43
2022/11/13 03:10:15;;;;;;;6.13;2.40;;;;;;;;;;2114309;28;20044;-43
2022/11/13 03:11:17;;;;;;;3.95;2.53;;;;;;;;;;2113970;28;20044;-47
2022/11/13 03:12:18;;;;;;;5.10;2.20;;;;;;;;;;2114226;28;20047;-46
2022/11/13 03:13:19;;;;;;;6.55;2.53;;;;;;;;;;2114355;28;20211;-47
2022/11/13 03:14:20;;;;;;;4.70;2.60;;;;;;;;;;2114204;28;20047;-49
2022/11/13 03:15:22;;;;;;;4.65;3.00;;;;;;;;;;2114232;28;20052;-47
2022/11/13 03:16:23;;;;;;;3.17;2.25;;;;;;;;;;2114099;28;20480;-48
2022/11/13 03:17:24;;;;;;;4.35;2.28;;;;;;;;;;2115530;28;20520;-47
2022/11/13 03:18:26;;;;;;;2.97;2.27;;;;;;;;;;2115731;28;20052;-47
2022/11/13 03:19:27;;;;;;;4.63;2.33;;;;;;;;;;2115576;28;20043;-47
2022/11/13 03:20:28;;;;;;;3.53;2.50;;;;;;;;;;2115694;28;20047;-47
2022/11/13 03:21:30;;;;;;;4.50;2.63;;;;;;;;;;2115799;28;20047;-47
2022/11/13 03:22:31;;;;;;;4.38;2.55;;;;;;;;;;2115967;28;20051;-43
2022/11/13 03:23:32;;;;;;;5.00;2.90;;;;;;;;;;2115599;28;20040;-44
2022/11/13 03:24:33;;;;;;;4.22;2.60;;;;;;;;;;2115812;28;20097;-43
2022/11/13 03:25:34;;;;;;;4.22;2.30;;;;;;;;;;2115576;28;20043;-43
2022/11/13 03:26:36;;;;;;;4.27;2.70;;;;;;;;;;2116003;28;20040;-47
2022/11/13 03:27:37;;;;;;;5.15;2.63;;;;;;;;;;2115624;28;20400;-48
2022/11/13 03:28:38;;;;;;;4.03;2.70;;;;;;;;;;2115678;28;20051;-50
2022/11/13 03:29:39;;;;;;;6.35;2.70;;;;;;;;;;2115787;28;20276;-46
2022/11/13 03:30:40;;;;;;;5.43;2.40;;;;;;;;;;2115567;28;20196;-47
2022/11/13 03:31:41;;;;;;;4.65;3.08;;;;;;;;;;2115537;28;20047;-47
2022/11/13 03:32:42;;;;;;;3.40;2.20;;;;;;;;;;2115743;28;20504;-48
2022/11/13 03:33:43;;;;;;;4.40;2.60;;;;;;;;;;2115604;28;20487;-46
2022/11/13 03:34:44;;;;;;;4.17;2.70;;;;;;;;;;2115304;28;20058;-48
2022/11/13 03:35:46;;;;;;;3.90;2.50;;;;;;;;;;2115853;28;20039;-46
2022/11/13 03:36:48;;;;;;;5.65;2.38;;;;;;;;;;2115501;28;20107;-47
2022/11/13 03:37:49;;;;;;;4.95;2.95;;;;;;;;;;2115611;28;20499;-49
2022/11/13 03:38:50;;;;;;;4.65;2.72;;;;;;;;;;2115531;28;20065;-47
2022/11/13 03:39:51;;;;;;;6.68;2.80;;;;;;;;;;2115581;28;20199;-47
2022/11/13 03:40:52;;;;;;;4.30;2.57;;;;;;;;;;2115662;28;20140;-47
2022/11/13 03:41:54;;;;;;;4.32;2.67;;;;;;;;;;2115741;28;20046;-46
2022/11/13 03:42:55;;;;;;;7.53;2.90;;;;;;;;;;2115603;28;20047;-47
2022/11/13 03:43:56;;;;;;;9.35;2.65;;;;;;;;;;2115683;28;20047;-47
2022/11/13 03:44:57;;;;;;;4.03;2.80;;;;;;;;;;2115681;28;20050;-43
2022/11/13 03:45:58;;;;;;;5.78;3.03;;;;;;;;;;2115887;28;20043;-45
2022/11/13 03:46:59;;;;;;;4.70;2.90;;;;;;;;;;2115479;28;20050;-45
2022/11/13 03:48:00;;;;;;;4.53;2.70;;;;;;;;;;2115500;28;20048;-47
2022/11/13 03:49:01;;;;;;;5.73;2.90;;;;;;;;;;2115575;28;20054;-46
2022/11/13 03:50:02;;;;;;;5.82;3.10;;;;;;;;;;2115378;28;20047;-45
2022/11/13 03:51:03;;;;;;;3.95;2.70;;;;;;;;;;2115488;28;20043;-47
2022/11/13 03:52:04;;;;;;;7.82;3.20;;;;;;;;;;2115468;28;20058;-48
2022/11/13 03:53:06;;;;;;;5.28;2.78;;;;;;;;;;2115597;28;20043;-51
2022/11/13 03:54:06;;;;;;;4.88;2.75;;;;;;;;;;2115573;28;20044;-46
2022/11/13 03:55:08;;;;;;;5.67;2.77;;;;;;;;;;2115398;28;20063;-46
2022/11/13 03:56:09;;;;;;;4.30;2.80;;;;;;;;;;2115585;28;20048;-48
2022/11/13 03:57:11;;;;;;;3.80;2.40;;;;;;;;;;2115630;28;20609;-51
2022/11/13 03:58:12;;;;;;;6.55;2.58;;;;;;;;;;2115635;28;20047;-47
2022/11/13 03:59:13;;;;;;;5.30;2.87;;;;;;;;;;2115340;28;20083;-47
2022/11/13 04:00:14;;;;;;;5.65;2.58;;;;;;;;;;2115341;28;20083;-47
2022/11/13 04:01:16;;;;;;;9.93;3.15;;;;;;;;;;2115467;28;20051;-50
2022/11/13 04:02:17;;;;;;;4.78;2.65;;;;;;;;;;2115665;28;20055;-51
2022/11/13 04:03:18;;;;;;;5.37;2.90;;;;;;;;;;2115392;28;20139;-47
2022/11/13 04:04:19;;;;;;;4.25;3.05;;;;;;;;;;2115499;28;20617;-47
2022/11/13 04:05:21;;;;;;;5.00;2.90;;;;;;;;;;2108460;28;20050;-50
2022/11/13 04:06:23;;;;;;;6.22;2.70;;;;;;;;;;2107026;28;20048;-47
2022/11/13 04:07:24;;;;;;;4.73;2.57;;;;;;;;;;2107089;28;20099;-49
2022/11/13 04:08:25;;;;;;;4.55;2.47;;;;;;;;;;2106886;28;20040;-47
2022/11/13 04:09:27;;;;;;;4.22;2.65;;;;;;;;;;2107050;28;20052;-47
2022/11/13 04:10:28;;;;;;;3.90;2.65;;;;;;;;;;2107043;28;20502;-44
2022/11/13 04:11:29;;;;;;;5.13;2.80;;;;;;;;;;2107211;28;20240;-47
2022/11/13 04:12:31;;;;;;;4.03;3.00;;;;;;;;;;2106936;28;20067;-49
2022/11/13 04:13:32;;;;;;;6.95;2.70;;;;;;;;;;2107102;28;20048;-47
2022/11/13 04:14:33;;;;;;;4.53;2.60;;;;;;;;;;2111915;28;20036;-49
2022/11/13 04:15:34;;;;;;;5.57;2.50;;;;;;;;;;2115565;28;20048;-43
2022/11/13 04:16:35;;;;;;;7.30;3.60;;;;;;;;;;2115547;28;20048;-43
2022/11/13 04:17:36;;;;;;;6.43;3.00;;;;;;;;;;2115465;28;20395;-48
2022/11/13 04:18:37;;;;;;;5.38;3.15;;;;;;;;;;2115411;28;20043;-47
2022/11/13 04:19:38;;;;;;;3.27;2.40;;;;;;;;;;2115302;28;20130;-48
2022/11/13 04:20:39;;;;;;;5.07;2.83;;;;;;;;;;2115213;28;20055;-47
2022/11/13 04:21:41;;;;;;;6.40;2.70;;;;;;;;;;2115511;28;20040;-49
2022/11/13 04:22:41;;;;;;;4.43;2.88;;;;;;;;;;2115519;28;20392;-43
2022/11/13 04:23:43;;;;;;;4.03;2.57;;;;;;;;;;2115330;28;20127;-43
2022/11/13 04:24:43;;;;;;;4.10;2.70;;;;;;;;;;2115214;28;20495;-43
2022/11/13 04:25:47;;;;;;;4.82;2.70;;;;;;;;;;2115623;28;20050;-43
2022/11/13 04:26:48;;;;;;;6.90;3.00;;;;;;;;;;2115399;28;20079;-42
2022/11/13 04:27:50;;;;;;;5.87;2.80;;;;;;;;;;2114787;28;20044;-43
2022/11/13 04:28:51;;;;;;;3.88;2.63;;;;;;;;;;2115217;28;20070;-43
2022/11/13 04:29:52;;;;;;;4.00;2.72;;;;;;;;;;2115294;28;20559;-42
2022/11/13 04:30:53;;;;;;;5.88;3.00;;;;;;;;;;2114812;28;20499;-42
2022/11/13 04:31:54;;;;;;;6.65;2.97;;;;;;;;;;2115302;28;20054;-44
2022/11/13 04:32:55;;;;;;;3.65;2.28;;;;;;;;;;2115219;28;20048;-42
2022/11/13 04:33:56;;;;;;;4.28;2.70;;;;;;;;;;2115659;28;20066;-43
2022/11/13 04:34:57;;;;;;;7.90;2.90;;;;;;;;;;2115499;28;20058;-43
2022/11/13 04:35:58;;;;;;;4.28;2.75;;;;;;;;;;2115293;28;20043;-44
2022/11/13 04:36:59;;;;;;;4.35;2.25;;;;;;;;;;2115218;28;20052;-47
2022/11/13 04:38:01;;;;;;;6.78;3.05;;;;;;;;;;2115139;28;20055;-47
2022/11/13 04:39:01;;;;;;;5.97;2.83;;;;;;;;;;2115449;28;20081;-43
2022/11/13 04:40:03;;;;;;;5.17;2.70;;;;;;;;;;2115290;28;20039;-44
2022/11/13 04:43:39;;;;;;;8.00;3.25;;;;;;;;;;2114946;28;20489;-43
2022/11/13 04:44:41;;;;;;;3.70;2.53;;;;;;;;;;2115343;28;20472;-43
2022/11/13 04:45:42;;;;;;;3.83;2.47;;;;;;;;;;2114996;28;20445;-42
2022/11/13 04:46:43;;;;;;;4.32;2.67;;;;;;;;;;2115073;28;20052;-43
2022/11/13 04:47:44;;;;;;;5.35;2.58;;;;;;;;;;2115367;28;20381;-50
2022/11/13 04:48:45;;;;;;;4.93;2.65;;;;;;;;;;2115322;28;20046;-43
2022/11/13 04:49:46;;;;;;;4.40;2.70;;;;;;;;;;2115380;28;20058;-43
2022/11/13 04:50:47;;;;;;;4.20;2.63;;;;;;;;;;2115134;28;20062;-43
2022/11/13 04:51:48;;;;;;;5.45;3.00;;;;;;;;;;2115166;28;20052;-43
2022/11/13 04:52:49;;;;;;;4.17;3.03;;;;;;;;;;2115509;28;20047;-50
2022/11/13 04:53:50;;;;;;;5.10;2.95;;;;;;;;;;2115223;28;20044;-48
2022/11/13 04:54:52;;;;;;;4.07;3.42;;;;;;;;;;2115038;28;20403;-47
2022/11/13 04:55:53;;;;;;;8.15;4.45;;;;;;;;;;2115026;28;20043;-48
2022/11/13 04:56:54;;;;;;;6.90;4.47;;;;;;;;;;2115090;28;20047;-48
2022/11/13 04:57:56;;;;;;;3.58;2.90;;;;;;;;;;2115008;28;20044;-49
2022/11/13 04:58:57;;;;;;;3.78;2.97;;;;;;;;;;2115177;28;20048;-49
2022/11/13 04:59:58;;;;;;;5.03;3.03;;;;;;;;;;2114959;28;20047;-48
2022/11/13 05:00:59;;;;;;;4.40;2.88;;;;;;;;;;2114960;28;20048;-47
2022/11/13 05:02:00;;;;;;;6.47;2.47;;;;;;;;;;2115144;28;20138;-49
2022/11/13 05:03:02;;;;;;;6.40;2.97;;;;;;;;;;2115005;28;20043;-48
2022/11/13 05:04:03;;;;;;;4.67;2.93;;;;;;;;;;2115175;28;20130;-48
2022/11/13 05:05:04;;;;;;;3.33;2.38;;;;;;;;;;2110284;28;20638;-47
2022/11/13 05:06:07;;;;;;;6.22;2.65;;;;;;;;;;2106925;28;20052;-47
2022/11/13 05:07:08;;;;;;;3.38;2.40;;;;;;;;;;2106912;28;20075;-48
2022/11/13 05:08:09;;;;;;;6.03;2.60;;;;;;;;;;2107113;28;20548;-52
2022/11/13 05:09:10;;;;;;;3.50;2.45;;;;;;;;;;2106729;28;20044;-44
2022/11/13 05:10:12;;;;;;;4.80;2.60;;;;;;;;;;2106563;28;20452;-45
2022/11/13 05:11:12;;;;;;;4.25;2.72;;;;;;;;;;2106502;28;20047;-43
2022/11/13 05:12:14;;;;;;;3.15;2.15;;;;;;;;;;2106554;28;20093;-45
2022/11/13 05:13:14;;;;;;;3.50;2.72;;;;;;;;;;2106547;28;20059;-43
2022/11/13 05:14:16;;;;;;;4.90;2.60;;;;;;;;;;2106687;28;20471;-44
2022/11/13 05:15:17;;;;;;;3.55;2.45;;;;;;;;;;2106747;28;20048;-49
2022/11/13 05:16:18;;;;;;;4.67;2.70;;;;;;;;;;2106416;28;20086;-47
2022/11/13 05:17:19;;;;;;;6.15;3.38;;;;;;;;;;2106637;28;20048;-49
2022/11/13 05:18:23;;;;;;;5.50;3.47;;;;;;;;;;2106691;28;20079;-47
2022/11/13 05:19:24;;;;;;;6.45;4.20;;;;;;;;;;2106466;28;20493;-50
2022/11/13 05:20:25;;;;;;;8.93;4.07;;;;;;;;;;2106379;28;20089;-47
2022/11/13 05:21:26;;;;;;;5.82;4.22;;;;;;;;;;2106567;28;20048;-48
2022/11/13 05:22:27;;;;;;;5.10;4.13;;;;;;;;;;2106504;28;20481;-49
2022/11/13 05:23:29;;;;;;;6.47;4.20;;;;;;;;;;2106724;28;20408;-51
2022/11/13 05:24:30;;;;;;;7.10;4.82;;;;;;;;;;2106412;28;20405;-48
2022/11/13 05:25:31;;;;;;;5.68;4.38;;;;;;;;;;2106885;28;20052;-44
2022/11/13 05:26:32;;;;;;;5.82;4.63;;;;;;;;;;2106618;28;20542;-44
2022/11/13 05:27:33;;;;;;;6.93;5.10;;;;;;;;;;2110543;28;20051;-44
2022/11/13 05:28:34;;;;;;;7.93;5.50;;;;;;;;;;2114979;28;20512;-45
2022/11/13 05:29:37;;;;;;;7.40;4.10;;;;;;;;;;2114813;28;20047;-46
2022/11/13 05:30:37;;;;;;;;;;;;;;;;;;2115239;28;20051;-46
2022/11/13 05:31:38;;;;;;;8.90;4.43;;;;;;;;;;2115015;28;19942;-49
2022/11/13 05:32:40;;;;;;;4.93;4.10;;;;;;;;;;2114937;28;20134;-51
2022/11/13 05:33:41;;;;;;;4.43;3.20;;;;;;;;;;2114829;28;20055;-51
2022/11/13 05:34:42;;;;;;;4.47;3.25;;;;;;;;;;2114850;28;20051;-49
2022/11/13 05:35:43;;;;;;;6.05;3.22;;;;;;;;;;2114846;28;20040;-48
2022/11/13 05:36:44;;;;;;;6.47;3.23;;;;;;;;;;2114813;28;20047;-48
2022/11/13 05:37:45;;;;;;;4.68;3.28;;;;;;;;;;2114831;28;20137;-48
2022/11/13 05:38:47;;;;;;;5.80;3.63;;;;;;;;;;2114976;28;20043;-51
2022/11/13 05:39:50;;;;;;;6.68;4.10;;;;;;;;;;2113727;28;20667;-49
2022/11/13 05:40:51;;;;;;;3.83;2.83;;;;;;;;;;2114687;28;20058;-47
2022/11/13 05:41:52;;;;;;;4.10;3.00;;;;;;;;;;2115231;28;20047;-43
2022/11/13 05:42:54;;;;;;;5.45;2.85;;;;;;;;;;2114644;28;20434;-45
2022/11/13 05:43:54;;;;;;;3.50;2.63;;;;;;;;;;2115216;28;20043;-43
2022/11/13 05:45:01;;;;;;;5.32;3.17;;;;;;;;;;2115062;28;20419;-47
2022/11/13 05:46:02;;;;;;;;;;;;;;;;;;2115209;28;20052;-49
2022/11/13 05:47:03;;;;;;;3.75;2.65;;;;;;;;;;2114922;28;19920;-44
2022/11/13 05:48:04;;;;;;;4.68;2.50;;;;;;;;;;2115321;28;20503;-49
2022/11/13 05:49:05;;;;;;;3.83;2.50;;;;;;;;;;2114951;28;20051;-45
2022/11/13 05:50:07;;;;;;;4.38;2.50;;;;;;;;;;2114801;28;20051;-45
2022/11/13 05:51:09;;;;;;;4.47;2.30;;;;;;;;;;2114658;28;20051;-43
2022/11/13 05:52:10;;;;;;;4.18;2.20;;;;;;;;;;2115086;28;20053;-43
2022/11/13 05:53:11;;;;;;;3.63;2.50;;;;;;;;;;2114872;28;20484;-48
2022/11/13 05:54:12;;;;;;;4.55;2.28;;;;;;;;;;2114653;28;20410;-50
2022/11/13 05:55:13;;;;;;;4.33;2.80;;;;;;;;;;2114858;28;20139;-48
2022/11/13 05:56:15;;;;;;;4.47;2.40;;;;;;;;;;2114822;28;20284;-44
2022/11/13 05:57:16;;;;;;;4.60;3.38;;;;;;;;;;2114786;28;20054;-43
2022/11/13 05:58:17;;;;;;;5.75;3.08;;;;;;;;;;2114810;28;20047;-45
2022/11/13 05:59:18;;;;;;;4.10;2.63;;;;;;;;;;2114850;28;20404;-43
2022/11/13 06:00:20;;;;;;;3.80;2.53;;;;;;;;;;2114455;28;20369;-48
2022/11/13 06:01:22;;;;;;;3.58;2.22;;;;;;;;;;2115128;28;20039;-44
2022/11/13 06:02:23;;;;;;;3.88;2.55;;;;;;;;;;2114923;28;20054;-44
2022/11/13 06:03:24;;;;;;;5.87;2.60;;;;;;;;;;2114569;28;20046;-45
2022/11/13 06:04:25;;;;;;;8.65;2.28;;;;;;;;;;2115205;28;20059;-50
2022/11/13 06:05:27;;;;;;;6.03;2.92;;;;;;;;;;2106790;28;20044;-49
2022/11/13 06:06:30;;;;;;;3.75;2.45;;;;;;;;;;2106497;28;20052;-49
2022/11/13 06:07:31;;;;;;;6.50;2.67;;;;;;;;;;2106385;28;20706;-49
2022/11/13 06:08:32;;;;;;;4.53;2.50;;;;;;;;;;2106534;28;20073;-44
2022/11/13 06:09:33;;;;;;;4.65;2.20;;;;;;;;;;2106219;28;20044;-47
2022/11/13 06:10:34;;;;;;;4.57;2.93;;;;;;;;;;2113662;28;20111;-44
2022/11/13 06:11:35;;;;;;;3.25;2.47;;;;;;;;;;2114493;28;20047;-47
2022/11/13 06:12:36;;;;;;;5.93;4.15;;;;;;;;;;2113941;28;20093;-49
2022/11/13 06:13:38;;;;;;;7.20;4.05;;;;;;;;;;2113890;28;20040;-45
2022/11/13 06:14:39;;;;;;;4.28;3.00;;;;;;;;;;2113752;28;20050;-43